createdAt,value
2022-12-13T00:00:54.323Z,21.83
2022-12-13T00:04:00.898Z,27.87
2022-12-13T00:07:04.091Z,23.60
2022-12-13T00:10:08.159Z,23.50
2022-12-13T00:13:11.157Z,26.17
2022-12-13T00:16:15.885Z,26.93
2022-12-13T00:19:20.781Z,23.27
2022-12-13T00:22:23.760Z,24.27
2022-12-13T00:25:26.798Z,23.13
2022-12-13T00:28:29.832Z,27.13
2022-12-13T00:34:57.355Z,22.33
2022-12-13T00:38:00.365Z,25.47
2022-12-13T00:41:11.587Z,27.57
2022-12-13T00:44:15.290Z,21.50
2022-12-13T00:47:20.689Z,24.63
2022-12-13T00:50:25.534Z,27.13
2022-12-13T00:53:28.524Z,22.73
2022-12-13T00:56:33.822Z,22.97
2022-12-13T00:59:36.865Z,24.97
2022-12-13T01:02:40.028Z,25.20
2022-12-13T01:06:13.858Z,26.50
2022-12-13T01:09:10.007Z,25.23
2022-12-13T01:12:12.987Z,26.07
2022-12-13T01:15:16.144Z,26.67
2022-12-13T01:18:19.312Z,22.17
2022-12-13T01:21:23.603Z,26.40
2022-12-13T01:24:26.913Z,21.83
2022-12-13T01:27:29.899Z,23.60
2022-12-13T01:30:32.905Z,25.27
2022-12-13T01:33:36.793Z,24.70
2022-12-13T01:36:42.938Z,23.03
2022-12-13T01:39:45.904Z,28.13
2022-12-13T01:42:49.014Z,27.97
2022-12-13T01:45:52.063Z,30.07
2022-12-13T01:49:03.596Z,25.13
2022-12-13T01:52:11.602Z,29.77
2022-12-13T01:55:16.494Z,29.57
2022-12-13T01:58:21.129Z,26.37
2022-12-13T02:01:25.368Z,29.57
2022-12-13T02:04:31.650Z,27.67
2022-12-13T02:07:39.405Z,29.13
2022-12-13T02:10:43.883Z,22.67
2022-12-13T02:13:46.871Z,26.17
2022-12-13T02:16:57.296Z,29.27
2022-12-13T02:20:39.059Z,32.00
2022-12-13T02:24:16.399Z,27.43
2022-12-13T02:27:44.072Z,26.77
2022-12-13T02:30:54.128Z,25.37
2022-12-13T02:34:02.652Z,28.63
2022-12-13T02:37:18.201Z,22.90
2022-12-13T02:40:27.219Z,23.80
2022-12-13T02:43:35.722Z,26.33
2022-12-13T02:46:48.875Z,26.13
2022-12-13T02:49:56.610Z,24.43
2022-12-13T02:53:00.520Z,25.60
2022-12-13T02:56:03.494Z,28.10
2022-12-13T02:59:11.654Z,26.97
2022-12-13T03:02:31.574Z,24.77
2022-12-13T03:06:00.328Z,25.97
2022-12-13T03:09:25.412Z,27.30
2022-12-13T03:12:52.861Z,19.27
2022-12-13T03:15:59.062Z,24.80
2022-12-13T03:19:05.656Z,20.43
2022-12-13T03:22:08.661Z,23.43
2022-12-13T03:25:11.863Z,30.03
2022-12-13T03:28:15.221Z,25.70
2022-12-13T03:31:18.521Z,23.33
2022-12-13T03:34:23.320Z,25.73
2022-12-13T03:37:26.702Z,28.27
2022-12-13T03:40:31.315Z,23.53
2022-12-13T03:43:34.369Z,25.50
2022-12-13T03:46:38.236Z,25.47
2022-12-13T03:49:42.579Z,28.97
2022-12-13T03:52:47.450Z,25.57
2022-12-13T03:55:50.402Z,27.00
2022-12-13T03:58:53.373Z,25.93
2022-12-13T04:01:56.405Z,32.43
2022-12-13T04:05:00.980Z,29.10
2022-12-13T04:08:04.205Z,25.77
2022-12-13T04:11:43.524Z,27.10
2022-12-13T04:14:46.539Z,27.63
2022-12-13T04:17:51.223Z,26.10
2022-12-13T04:20:55.629Z,23.50
2022-12-13T04:24:01.019Z,22.60
2022-12-13T04:27:04.418Z,22.03
2022-12-13T04:30:09.088Z,25.77
2022-12-13T04:33:12.068Z,22.10
2022-12-13T04:36:32.113Z,24.87
2022-12-13T04:39:36.102Z,26.10
2022-12-13T04:42:39.321Z,25.80
2022-12-13T04:45:42.350Z,25.20
2022-12-13T04:48:45.334Z,25.70
2022-12-13T04:51:49.961Z,28.40
2022-12-13T04:54:55.679Z,22.00
2022-12-13T04:57:59.213Z,25.10
2022-12-13T05:01:02.296Z,27.50
2022-12-13T05:04:05.595Z,23.73
2022-12-13T05:07:09.898Z,26.57
2022-12-13T05:10:32.156Z,26.93
2022-12-13T05:13:36.516Z,25.67
2022-12-13T05:16:39.535Z,23.57
2022-12-13T05:19:42.543Z,26.90
2022-12-13T05:22:46.856Z,31.27
2022-12-13T05:25:49.891Z,24.30
2022-12-13T05:28:52.874Z,24.20
2022-12-13T05:31:55.918Z,23.77
2022-12-13T05:34:58.930Z,20.50
2022-12-13T05:38:03.525Z,29.87
2022-12-13T05:41:07.195Z,19.23
2022-12-13T05:44:10.428Z,26.27
2022-12-13T05:47:13.447Z,21.83
2022-12-13T05:50:18.684Z,20.63
2022-12-13T05:53:30.511Z,24.50
2022-12-13T05:56:34.182Z,19.53
2022-12-13T05:59:37.146Z,21.40
2022-12-13T06:02:40.912Z,23.03
2022-12-13T06:05:44.417Z,27.77
2022-12-13T06:08:48.716Z,21.77
2022-12-13T06:11:51.754Z,23.20
2022-12-13T06:15:04.760Z,27.73
2022-12-13T06:18:25.146Z,20.10
2022-12-13T06:21:28.173Z,23.00
2022-12-13T06:24:32.554Z,24.30
2022-12-13T06:27:35.535Z,25.30
2022-12-13T06:30:42.653Z,21.63
2022-12-13T06:33:46.227Z,20.33
2022-12-13T06:36:49.208Z,24.93
2022-12-13T06:39:53.515Z,20.87
2022-12-13T06:42:56.484Z,17.77
2022-12-13T06:45:59.485Z,19.40
2022-12-13T06:49:02.594Z,17.60
2022-12-13T06:52:05.981Z,22.43
2022-12-13T06:55:11.071Z,20.97
2022-12-13T06:58:14.048Z,23.80
2022-12-13T07:01:24.447Z,20.23
2022-12-13T07:04:29.361Z,21.70
2022-12-13T07:07:33.553Z,17.67
2022-12-13T07:10:40.520Z,22.90
2022-12-13T07:13:43.651Z,22.77
2022-12-13T07:16:46.653Z,20.40
2022-12-13T07:19:49.611Z,23.47
2022-12-13T07:22:58.899Z,19.20
2022-12-13T07:26:03.766Z,19.47
2022-12-13T07:29:06.866Z,22.53
2022-12-13T07:32:09.834Z,22.30
2022-12-13T07:35:12.766Z,21.93
2022-12-13T07:38:15.721Z,20.87
2022-12-13T07:41:23.363Z,23.43
2022-12-13T07:44:27.317Z,19.83
2022-12-13T07:47:31.118Z,23.37
2022-12-13T07:50:37.370Z,21.27
2022-12-13T07:53:41.682Z,17.43
2022-12-13T07:56:46.060Z,16.73
2022-12-13T07:59:49.310Z,20.60
2022-12-13T08:02:52.279Z,21.90
2022-12-13T08:06:03.129Z,20.77
2022-12-13T08:09:06.870Z,23.77
2022-12-13T08:12:11.190Z,18.73
2022-12-13T08:15:14.503Z,20.30
2022-12-13T08:18:17.582Z,23.47
2022-12-13T08:24:43.545Z,22.17
2022-12-13T08:27:47.883Z,18.40
2022-12-13T08:30:51.660Z,21.30
2022-12-13T08:33:54.654Z,18.67
2022-12-13T08:37:01.657Z,20.23
2022-12-13T08:40:07.470Z,20.53
2022-12-13T08:43:12.412Z,22.07
2022-12-13T08:46:15.693Z,20.43
2022-12-13T08:49:18.812Z,22.00
2022-12-13T08:52:23.201Z,17.97
2022-12-13T08:55:32.289Z,22.53
2022-12-13T08:58:37.041Z,16.90
2022-12-13T09:01:40.178Z,19.40
2022-12-13T09:04:43.581Z,22.23
2022-12-13T09:07:46.574Z,22.60
2022-12-13T09:10:59.435Z,21.10
2022-12-13T09:14:04.756Z,20.73
2022-12-13T09:17:07.983Z,19.03
2022-12-13T09:20:28.557Z,18.30
2022-12-13T09:23:35.596Z,20.60
2022-12-13T09:26:38.818Z,18.33
2022-12-13T09:29:43.389Z,19.90
2022-12-13T09:32:49.850Z,22.27
2022-12-13T09:35:53.369Z,21.07
2022-12-13T09:38:58.999Z,21.50
2022-12-13T09:42:02.078Z,18.30
2022-12-13T09:45:22.258Z,24.03
2022-12-13T09:48:35.864Z,19.93
2022-12-13T09:51:41.544Z,21.70
2022-12-13T09:54:49.386Z,17.50
2022-12-13T09:57:53.379Z,17.30
2022-12-13T10:00:59.204Z,18.07
2022-12-13T10:04:02.561Z,23.07
2022-12-13T10:07:12.882Z,21.30
2022-12-13T10:10:16.267Z,17.70
2022-12-13T10:13:22.003Z,19.73
2022-12-13T10:16:36.113Z,20.33
2022-12-13T10:19:41.887Z,18.67
2022-12-13T10:23:01.553Z,15.80
2022-12-13T10:26:14.825Z,14.57
2022-12-13T10:29:27.086Z,17.00
2022-12-13T10:32:37.248Z,16.03
2022-12-13T10:35:42.400Z,19.50
2022-12-13T10:38:46.813Z,15.60
2022-12-13T10:41:49.828Z,18.30
2022-12-13T10:45:14.884Z,16.47
2022-12-13T10:48:21.719Z,16.27
2022-12-13T10:51:24.794Z,14.93
2022-12-13T10:54:38.406Z,15.20
2022-12-13T10:57:53.206Z,19.23
2022-12-13T11:01:10.386Z,17.50
2022-12-13T11:04:27.964Z,19.20
2022-12-13T11:07:33.358Z,13.83
2022-12-13T11:10:36.792Z,25.90
2022-12-13T11:13:45.172Z,18.90
2022-12-13T11:16:52.787Z,17.07
2022-12-13T11:19:58.855Z,20.43
2022-12-13T11:23:05.791Z,16.40
2022-12-13T11:26:11.667Z,16.37
2022-12-13T11:29:35.277Z,18.27
2022-12-13T11:32:59.420Z,16.60
2022-12-13T11:36:15.457Z,18.07
2022-12-13T11:39:26.865Z,19.07
2022-12-13T11:42:33.906Z,13.97
2022-12-13T11:45:42.610Z,16.57
2022-12-13T11:48:51.785Z,14.00
2022-12-13T11:52:01.326Z,11.77
2022-12-13T11:55:12.640Z,14.77
2022-12-13T11:58:45.769Z,12.97
2022-12-13T12:01:51.879Z,12.10
2022-12-13T12:05:00.736Z,14.03
2022-12-13T12:08:32.267Z,13.03
2022-12-13T12:11:45.099Z,14.93
2022-12-13T12:14:55.301Z,13.60
2022-12-13T12:17:58.818Z,13.17
2022-12-13T12:21:15.384Z,12.93
2022-12-13T12:24:29.493Z,13.83
2022-12-13T12:27:41.453Z,12.77
2022-12-13T12:30:54.524Z,13.67
2022-12-13T12:34:13.112Z,15.27
2022-12-13T12:37:25.808Z,15.03
2022-12-13T12:44:33.647Z,13.57
2022-12-13T12:48:43.903Z,15.27
2022-12-13T12:51:18.170Z,16.10
2022-12-13T12:54:33.810Z,12.30
2022-12-13T12:57:46.695Z,13.83
2022-12-13T13:00:58.787Z,15.40
2022-12-13T13:04:07.712Z,13.60
2022-12-13T13:07:23.367Z,12.67
2022-12-13T13:10:27.804Z,11.93
2022-12-13T13:13:46.279Z,15.20
2022-12-13T13:16:50.026Z,16.80
2022-12-13T13:20:04.227Z,17.40
2022-12-13T13:23:40.108Z,13.63
2022-12-13T13:26:42.565Z,17.37
2022-12-13T13:29:47.144Z,19.23
2022-12-13T13:32:51.072Z,18.40
2022-12-13T13:35:57.019Z,19.27
2022-12-13T13:39:01.753Z,13.97
2022-12-13T13:42:19.529Z,14.07
2022-12-13T13:45:27.018Z,14.07
2022-12-13T13:48:57.350Z,17.17
2022-12-13T13:52:25.032Z,18.40
2022-12-13T13:55:48.498Z,20.03
2022-12-13T13:59:30.339Z,16.53
2022-12-13T14:03:22.188Z,17.57
2022-12-13T14:07:34.626Z,24.07
2022-12-13T14:10:51.702Z,19.17
2022-12-13T14:14:41.958Z,23.70
2022-12-13T14:18:41.510Z,20.87
2022-12-13T14:21:59.200Z,20.30
2022-12-13T14:25:30.774Z,23.43
2022-12-13T14:28:45.340Z,22.00
2022-12-13T14:31:49.768Z,18.77
2022-12-13T14:34:54.051Z,21.90
2022-12-13T14:37:59.654Z,18.70
2022-12-13T14:41:05.929Z,18.87
2022-12-13T14:44:15.845Z,18.10
2022-12-13T14:47:19.696Z,22.47
2022-12-13T14:50:25.653Z,17.90
2022-12-13T14:53:31.962Z,21.47
2022-12-13T14:56:36.401Z,20.30
2022-12-13T14:59:50.254Z,21.50
2022-12-13T15:02:55.718Z,22.67
2022-12-13T15:06:01.153Z,18.97
2022-12-13T15:09:04.169Z,20.73
2022-12-13T15:12:23.946Z,18.87
2022-12-13T15:15:31.295Z,26.73
2022-12-13T15:18:36.116Z,23.43
2022-12-13T15:21:39.107Z,23.83
2022-12-13T15:24:46.914Z,25.30
2022-12-13T15:27:53.152Z,26.43
2022-12-13T15:30:57.263Z,26.07
2022-12-13T15:34:39.111Z,21.70
2022-12-13T15:37:47.505Z,26.03
2022-12-13T15:40:51.137Z,25.00
2022-12-13T15:43:58.958Z,26.10
2022-12-13T15:47:05.223Z,21.30
2022-12-13T15:50:08.582Z,19.70
2022-12-13T15:53:22.914Z,24.90
2022-12-13T15:56:32.084Z,24.53
2022-12-13T15:59:37.583Z,23.27
2022-12-13T16:02:51.617Z,24.03
2022-12-13T16:05:56.479Z,19.20
2022-12-13T16:09:01.826Z,21.77
2022-12-13T16:12:07.281Z,24.87
2022-12-13T16:15:20.444Z,27.10
2022-12-13T16:18:34.559Z,24.67
2022-12-13T16:21:37.546Z,27.77
2022-12-13T16:24:40.607Z,28.80
2022-12-13T16:27:44.093Z,23.13
2022-12-13T16:31:14.967Z,26.20
2022-12-13T16:34:19.541Z,26.07
2022-12-13T16:37:29.277Z,24.70
2022-12-13T16:40:33.246Z,26.43
2022-12-13T16:43:40.577Z,29.10
2022-12-13T16:47:18.313Z,27.03
2022-12-13T16:50:14.520Z,29.37
2022-12-13T16:53:18.306Z,30.90
2022-12-13T16:56:22.329Z,25.90
2022-12-13T16:59:27.070Z,28.50
2022-12-13T17:02:31.517Z,29.63
2022-12-13T17:05:36.025Z,32.93
2022-12-13T17:08:39.375Z,31.53
2022-12-13T17:11:42.381Z,27.23
2022-12-13T17:14:45.342Z,36.97
2022-12-13T17:17:49.908Z,25.03
2022-12-13T17:20:58.460Z,32.30
2022-12-13T17:24:03.247Z,29.70
2022-12-13T17:27:06.296Z,28.30
2022-12-13T17:30:13.587Z,23.87
2022-12-13T17:33:18.349Z,29.63
2022-12-13T17:36:21.348Z,30.23
2022-12-13T17:39:25.419Z,28.00
2022-12-13T17:42:28.452Z,27.70
2022-12-13T17:45:31.448Z,26.73
2022-12-13T17:48:40.800Z,31.63
2022-12-13T17:51:44.213Z,26.63
2022-12-13T17:54:54.402Z,28.77
2022-12-13T17:57:59.812Z,26.70
2022-12-13T18:01:12.376Z,30.37
2022-12-13T18:04:17.367Z,27.77
2022-12-13T18:07:21.563Z,29.20
2022-12-13T18:10:29.529Z,31.10
2022-12-13T18:13:33.263Z,30.17
2022-12-13T18:16:38.963Z,28.53
2022-12-13T18:19:43.755Z,31.37
2022-12-13T18:22:51.304Z,33.17
2022-12-13T18:26:00.104Z,29.90
2022-12-13T18:29:03.122Z,28.57
2022-12-13T18:32:06.353Z,31.70
2022-12-13T18:35:10.924Z,26.90
2022-12-13T18:38:13.977Z,32.03
2022-12-13T18:41:18.629Z,29.40
2022-12-13T18:44:21.798Z,35.77
2022-12-13T18:47:26.441Z,34.57
2022-12-13T18:50:30.803Z,27.13
2022-12-13T18:53:34.928Z,28.23
2022-12-13T18:56:37.908Z,32.13
2022-12-13T18:59:40.879Z,34.07
2022-12-13T19:02:44.101Z,29.40
2022-12-13T19:05:48.650Z,32.30
2022-12-13T19:08:53.311Z,34.77
2022-12-13T19:11:56.351Z,27.43
2022-12-13T19:14:59.323Z,28.20
2022-12-13T19:18:04.031Z,24.20
2022-12-13T19:21:10.995Z,27.33
2022-12-13T19:24:14.696Z,33.13
2022-12-13T19:27:17.836Z,27.33
2022-12-13T19:30:23.605Z,27.00
2022-12-13T19:33:27.615Z,27.23
2022-12-13T19:36:33.403Z,26.00
2022-12-13T19:39:36.454Z,28.17
2022-12-13T19:42:39.438Z,26.87
2022-12-13T19:45:45.454Z,26.60
2022-12-13T19:48:48.767Z,25.73
2022-12-13T19:51:53.361Z,24.40
2022-12-13T19:54:56.708Z,28.77
2022-12-13T19:57:59.855Z,28.73
2022-12-13T20:01:03.828Z,26.97
2022-12-13T20:04:06.869Z,26.03
2022-12-13T20:07:11.202Z,25.07
2022-12-13T20:10:14.277Z,29.63
2022-12-13T20:13:17.275Z,25.53
2022-12-13T20:16:22.431Z,25.63
2022-12-13T20:19:25.482Z,27.00
2022-12-13T20:22:29.821Z,22.07
2022-12-13T20:25:32.793Z,28.53
2022-12-13T20:28:35.834Z,20.50
2022-12-13T20:31:39.943Z,27.60
2022-12-13T20:34:42.950Z,27.77
2022-12-13T20:37:48.862Z,24.67
2022-12-13T20:40:51.863Z,22.00
2022-12-13T20:43:55.869Z,27.07
2022-12-13T20:46:58.981Z,25.83
2022-12-13T20:50:01.979Z,26.90
2022-12-13T20:53:06.397Z,29.33
2022-12-13T20:56:11.774Z,25.13
2022-12-13T20:59:15.221Z,23.37
2022-12-13T21:02:18.305Z,21.63
2022-12-13T21:05:21.311Z,24.63
2022-12-13T21:08:51.464Z,24.70
2022-12-13T21:11:54.429Z,27.43
2022-12-13T21:14:57.456Z,27.37
2022-12-13T21:18:00.413Z,22.33
2022-12-13T21:21:03.428Z,21.50
2022-12-13T21:24:09.045Z,22.00
2022-12-13T21:27:12.008Z,23.17
2022-12-13T21:30:15.325Z,31.03
2022-12-13T21:33:18.292Z,26.27
2022-12-13T21:36:23.086Z,24.10
2022-12-13T21:39:28.857Z,22.33
2022-12-13T21:42:31.816Z,24.73
2022-12-13T21:45:34.971Z,25.77
2022-12-13T21:48:39.453Z,23.23
2022-12-13T21:51:47.675Z,18.53
2022-12-13T21:55:03.405Z,27.83
2022-12-13T21:58:33.224Z,27.70
2022-12-13T22:01:50.236Z,24.87
2022-12-13T22:04:54.882Z,23.00
2022-12-13T22:07:57.828Z,26.00
2022-12-13T22:11:20.824Z,23.60
2022-12-13T22:14:24.518Z,22.97
2022-12-13T22:17:35.319Z,20.87
2022-12-13T22:20:39.243Z,21.00
2022-12-13T22:23:42.245Z,21.27
2022-12-13T22:26:46.601Z,23.63
2022-12-13T22:29:49.628Z,24.63
2022-12-13T22:32:53.938Z,18.10
2022-12-13T22:35:56.924Z,21.83
2022-12-13T22:38:59.895Z,21.57
2022-12-13T22:42:04.510Z,26.00
2022-12-13T22:45:08.340Z,18.10
2022-12-13T22:48:11.292Z,19.73
2022-12-13T22:51:16.357Z,23.73
2022-12-13T22:54:19.346Z,20.93
2022-12-13T22:57:24.013Z,21.33
2022-12-13T23:00:27.043Z,20.10
2022-12-13T23:03:30.071Z,19.57
2022-12-13T23:06:36.782Z,20.00
2022-12-13T23:09:39.723Z,20.03
2022-12-13T23:13:01.362Z,20.90
2022-12-13T23:16:06.939Z,16.80
2022-12-13T23:19:40.532Z,21.33
2022-12-13T23:22:35.206Z,19.60
2022-12-13T23:25:38.203Z,18.83
2022-12-13T23:28:44.793Z,18.93
2022-12-13T23:31:48.794Z,21.50
2022-12-13T23:34:52.274Z,19.27
2022-12-13T23:37:55.256Z,18.23
2022-12-13T23:41:02.489Z,15.40
2022-12-13T23:44:06.884Z,17.13
2022-12-13T23:47:09.845Z,20.67
2022-12-13T23:50:13.305Z,18.67
2022-12-13T23:53:16.262Z,18.87
2022-12-13T23:56:19.627Z,22.03
2022-12-13T23:59:25.842Z,17.80
